Terminal Aerodrome Forecast
Issued by NWS

Home | Current Version | Previous Version | Graphics & Text | Print | Product List | Glossary On
Versions: 1 2 3 4 5 6 7 8 9 10 11 12 13 14 15 16 17 18 19 20 21
866
FTUS43 KABR 161345 AAB
TAFATY
TAF AMD
KATY 161345Z 1614/1712 30015KT P6SM -RA OVC010
      TEMPO 1614/1616 -SHRA BKN100
     FM161600 31010KT P6SM VCSH OVC015
     FM161800 31010KT P6SM BKN020
     FM170200 30010KT P6SM BKN040
     FM170400 29010KT P6SM SCT050
     FM171100 VRB06KT P6SM FEW100=

USA.gov is the U.S. government's official web portal to all federal, state and local government web resources and services.